Latest Weather Observations for Yunta

IDS60801

Issued at 7:31 am CDT Tuesday 7 December 2021 (issued every 10 minutes, with the page automatically refreshed every 10 minutes)

About weather observations | Map of weather stations | Latest weather observations for SA | Other Formats
Station Details ID: 020062 Name: YUNTA AIRSTRIP Lat: -32.57 Lon: 139.56 Height: 300.0 m
Data from the previous 72 hours. | See also: Recent months at Yunta
Date/Time
CDT
Temp
°C
App
Temp
°C
Dew
Point
°C
Rel
Hum
%
Delta-T
°C
Wind Press
QNH
hPa
Press
MSL
hPa
Rain since
9am
mm
Dir  Spd
km/h
Gust
km/h
Spd
kts
Gust
kts
07/07:30am 14.7 10.2 8.4 66 3.2 SSE 22 32 12 17 1013.8 1012.4 0.0
07/07:00am 14.8 11.0 9.0 68 3.0 S 19 26 10 14 1013.6 1012.2 0.0
07/06:30am 14.4 10.6 9.0 70 2.8 S 19 26 10 14 1013.5 1012.1 0.0
07/06:00am 14.4 10.4 9.2 71 2.7 S 20 28 11 15 1013.3 1011.9 0.0
07/05:30am 14.4 11.1 9.4 72 2.6 SSE 17 24 9 13 1013.1 1011.7 0.0
07/05:00am 14.2 11.6 9.2 72 2.6 SSE 13 20 7 11 1012.8 1011.4 0.0
07/04:30am 14.7 11.7 9.1 69 2.9 S 15 20 8 11 1012.6 1011.2 0.0
07/04:00am 15.1 11.6 8.8 66 3.3 S 17 24 9 13 1012.3 1010.9 0.0
07/03:30am 15.9 13.2 9.1 64 3.6 SSW 13 19 7 10 1012.1 1010.7 0.0
07/03:00am 16.5 13.4 7.4 55 4.6 SSW 13 17 7 9 1012.0 1010.6 0.0
07/02:30am 17.3 13.0 7.1 51 5.2 S 19 24 10 13 1011.8 1010.5 0.0
07/02:00am 18.0 14.1 7.1 49 5.5 S 17 24 9 13 1012.1 1010.7 0.0
07/01:30am 18.5 15.0 7.0 47 5.9 S 15 22 8 12 1012.1 1010.7 0.0
07/01:00am 18.7 15.9 6.9 46 6.0 S 11 15 6 8 1012.3 1010.9 0.0
07/12:30am 18.9 16.4 6.7 45 6.2 S 9 13 5 7 1012.4 1011.0 0.0
07/12:00am 19.8 16.5 6.5 42 6.8 S 13 19 7 10 1012.5 1011.1 0.0
 
Date/Time
CDT
Temp
°C
App
Temp
°C
Dew
Point
°C
Rel
Hum
%
Delta-T
°C
Wind Press
QNH
hPa
Press
MSL
hPa
Rain since
9am
mm
Dir  Spd
km/h
Gust
km/h
Spd
kts
Gust
kts
06/11:30pm 20.6 16.4 7.6 43 6.8 S 19 24 10 13 1012.3 1010.9 0.0
06/11:00pm 21.3 18.2 7.2 40 7.3 SSW 13 17 7 9 1012.2 1010.8 0.0
06/10:30pm 21.5 17.9 6.6 38 7.7 SW 15 20 8 11 1012.1 1010.7 0.0
06/10:00pm 22.0 18.0 6.7 37 7.9 SW 17 22 9 12 1011.4 1010.1 0.0
06/09:30pm 23.0 18.1 7.1 36 8.4 SW 22 33 12 18 1011.0 1009.6 0.0
06/09:00pm 24.3 19.0 7.0 33 9.2 SW 24 37 13 20 1010.5 1009.1 0.0
06/08:30pm 25.1 20.9 7.3 32 9.5 SW 19 26 10 14 1010.2 1008.8 0.0
06/08:00pm 25.8 22.8 5.9 28 10.4 NW 11 15 6 8 1010.0 1008.6 0.0
06/07:30pm 26.1 23.4 5.7 27 10.7 NW 9 13 5 7 1009.8 1008.4 0.0
06/07:00pm 26.6 23.6 6.1 27 10.8 NW 11 15 6 8 1009.5 1008.1 0.0
06/06:30pm 26.8 23.7 5.7 26 11.1 NW 11 15 6 8 1009.3 1007.9 0.0
06/06:00pm 26.9 24.3 6.3 27 10.9 NW 9 15 5 8 1009.1 1007.7 0.0
06/05:30pm 27.1 24.1 6.0 26 11.2 NW 11 15 6 8 1009.2 1007.8 0.0
06/05:00pm 27.3 24.8 5.0 24 11.6 NW 7 13 4 7 1009.4 1008.0 0.0
06/04:30pm 26.9 23.0 5.2 25 11.3 NNW 15 22 8 12 1009.5 1008.1 0.0
06/04:00pm 26.9 23.6 4.6 24 11.5 NNW 11 20 6 11 1009.7 1008.3 0.0
06/03:30pm 26.7 23.9 5.1 25 11.2 NNW 9 19 5 10 1010.0 1008.6 0.0
06/03:00pm 27.4 25.1 5.6 25 11.5 NNW 7 15 4 8 1010.2 1008.8 0.0
06/02:30pm 26.1 22.8 4.6 25 11.0 NNW 11 19 6 10 1010.5 1009.1 0.0
06/02:00pm 26.6 23.5 5.5 26 11.0 NNW 11 20 6 11 1010.8 1009.4 0.0
06/01:30pm 25.1 21.8 4.3 26 10.5 NNW 11 19 6 10 1011.0 1009.6 0.0
06/01:00pm 25.1 21.5 4.8 27 10.4 N 13 20 7 11 1011.3 1010.0 0.0
06/12:30pm 25.0 22.0 6.2 30 9.8 N 11 17 6 9 1011.8 1010.5 0.0
06/12:00pm 24.3 20.6 4.6 28 10.0 N 13 20 7 11 1012.1 1010.7 0.0
06/11:30am 24.5 20.6 5.3 29 9.9 N 15 24 8 13 1012.1 1010.7 0.0
06/11:00am 24.0 20.8 6.7 33 9.1 NNW 13 17 7 9 1012.0 1010.6 0.0
06/10:30am 23.2 19.1 6.1 33 8.8 N 17 24 9 13 1012.3 1010.9 0.0
06/10:00am 22.4 18.5 5.4 33 8.6 ESE 15 22 8 12 1012.6 1011.2 0.0
06/09:30am 20.8 20.0 11.7 56 5.1 ESE 7 9 4 5 1012.7 1011.3 0.0
06/09:00am 19.2 19.2 11.0 59 4.5 ESE 2 7 1 4 1013.0 1011.6 1.6
06/08:30am 18.2 17.9 11.3 64 3.8 ESE 4 7 2 4 1012.7 1011.3 1.6
06/08:00am 17.2 16.4 11.2 68 3.3 ESE 6 6 3 3 1012.7 1011.3 1.6
06/07:30am 16.2 15.3 12.6 79 2.0 ESE 9 17 5 9 1012.6 1011.2 1.6
06/07:00am 15.3 13.8 11.9 80 1.9 ESE 11 13 6 7 1012.5 1011.1 1.4
06/06:30am 16.9 15.1 10.7 67 3.4 ESE 11 17 6 9 1012.7 1011.3 0.4
06/06:00am 17.9 16.5 8.7 55 4.8 ESE 6 7 3 4 1012.1 1010.7 0.0
06/05:30am 18.3 16.4 7.7 50 5.5 ESE 7 9 4 5 1011.4 1010.1 0.0
06/05:00am 18.9 16.6 7.4 47 5.9 ESE 9 11 5 6 1011.0 1009.6 0.0
06/04:30am 19.0 18.3 6.8 45 6.2 CALM 0 2 0 1 1010.6 1009.2 0.0
06/04:00am 19.0 18.2 6.5 44 6.3 CALM 0 0 0 0 1010.5 1009.1 0.0
06/03:30am 19.3 17.3 6.1 42 6.7 ESE 6 7 3 4 1010.5 1009.1 0.0
06/03:00am 18.8 17.6 6.6 45 6.2 ESE 2 4 1 2 1010.5 1009.1 0.0
06/02:30am 19.4 18.1 6.2 42 6.7 ESE 2 4 1 2 1010.7 1009.3 0.0
06/02:00am 19.6 18.4 6.4 42 6.7 ESE 2 6 1 3 1011.0 1009.6 0.0
06/01:30am 20.2 18.0 5.4 38 7.4 ESE 6 6 3 3 1011.5 1010.2 0.0
06/01:00am 20.6 19.1 5.0 36 7.8 ESE 2 6 1 3 1011.8 1010.5 0.0
06/12:30am 21.3 18.8 4.0 32 8.5 ESE 6 7 3 4 1012.4 1011.0 0.0
06/12:00am 21.2 18.7 3.9 32 8.5 ESE 6 7 3 4 1012.7 1011.3 0.0
 
Date/Time
CDT
Temp
°C
App
Temp
°C
Dew
Point
°C
Rel
Hum
%
Delta-T
°C
Wind Press
QNH
hPa
Press
MSL
hPa
Rain since
9am
mm
Dir  Spd
km/h
Gust
km/h
Spd
kts
Gust
kts
05/11:30pm 21.0 18.9 4.1 33 8.3 ESE 4 6 2 3 1013.0 1011.6 0.0
05/11:00pm 21.3 18.7 4.0 32 8.5 ESE 7 7 4 4 1013.2 1011.8 0.0
05/10:30pm 22.0 19.3 3.6 30 9.0 ESE 7 9 4 5 1013.4 1012.0 0.0
05/10:00pm 22.9 20.2 3.9 29 9.4 ESE 7 9 4 5 1013.4 1012.0 0.0
05/09:30pm 23.4 20.4 3.9 28 9.7 ESE 9 11 5 6 1013.6 1012.2 0.0
05/09:00pm 23.7 20.5 3.1 26 10.1 ESE 9 13 5 7 1013.6 1012.2 0.0
05/08:30pm 24.2 20.2 2.9 25 10.4 SE 13 19 7 10 1013.6 1012.2 0.0
05/08:00pm 24.5 20.2 3.2 25 10.5 SE 15 22 8 12 1013.4 1012.0 0.0
05/07:30pm 24.8 20.9 3.5 25 10.6 SE 13 19 7 10 1013.5 1012.1 0.0
05/07:00pm 25.3 21.5 3.9 25 10.8 SE 13 19 7 10 1013.3 1011.9 0.0
05/06:30pm 25.7 22.1 3.0 23 11.3 SE 11 20 6 11 1013.2 1011.8 0.0
05/06:00pm 26.5 23.9 3.1 22 11.7 SE 6 11 3 6 1013.3 1011.9 0.0
05/05:30pm 26.6 24.5 1.8 20 12.1 SE 2 9 1 5 1013.4 1012.0 0.0
05/05:00pm 27.3 24.7 3.1 21 12.1 SE 6 9 3 5 1013.6 1012.2 0.0
05/04:30pm 26.9 23.8 3.4 22 11.8 SE 9 17 5 9 1013.9 1012.5 0.0
05/04:00pm 26.0 22.1 3.3 23 11.3 SE 13 19 7 10 1014.3 1013.0 0.0
05/03:30pm 26.1 23.0 3.4 23 11.4 SE 9 13 5 7 1014.7 1013.4 0.0
05/03:00pm 25.8 23.1 3.7 24 11.1 SE 7 15 4 8 1015.0 1013.7 0.0
05/02:30pm 25.8 23.1 3.7 24 11.1 SE 7 17 4 9 1015.6 1014.2 0.0
05/02:00pm 25.4 22.9 4.5 26 10.6 SE 7 13 4 7 1015.9 1014.5 0.0
05/01:30pm 25.1 21.5 4.8 27 10.3 SE 13 20 7 11 1016.7 1015.3 0.0
05/01:00pm 23.9 21.9 4.3 28 9.8 SE 4 9 2 5 1016.9 1015.5 0.0
05/12:30pm 23.6 21.6 4.5 29 9.6 SE 4 13 2 7 1017.3 1016.0 0.0
05/12:00pm 22.8 21.1 5.7 33 8.7 SE 4 13 2 7 1017.6 1016.3 0.0
05/11:30am 21.6 19.4 6.3 37 7.8 SE 7 17 4 9 1017.9 1016.6 0.0
05/11:00am 20.8 17.7 7.4 42 7.0 SE 13 20 7 11 1018.0 1016.7 0.0
05/10:30am 19.3 15.8 7.4 46 6.1 SE 15 22 8 12 1018.2 1016.9 0.0
05/10:00am 18.3 15.8 8.0 51 5.3 SE 11 20 6 11 1018.8 1017.5 0.0
05/09:30am 17.4 14.3 7.2 51 5.2 SSE 13 22 7 12 1019.2 1017.8 0.0
05/09:00am 16.0 13.4 7.7 58 4.2 SSE 11 19 6 10 1019.6 1018.2 0.0
05/08:30am 15.1 12.9 7.9 62 3.6 S 9 17 5 9 1019.7 1018.3 0.0
05/08:00am 13.6 11.0 7.6 67 3.0 SSE 11 20 6 11 1019.8 1018.4 0.0
05/07:30am 13.1 10.9 8.0 71 2.6 SSE 9 13 5 7 1019.5 1018.1 0.0
05/07:00am 12.3 9.3 7.6 73 2.3 SSE 13 17 7 9 1019.3 1017.9 0.0
05/06:30am 11.5 7.3 7.6 77 1.9 S 19 22 10 12 1018.5 1017.2 0.0
05/06:00am 11.2 8.5 7.3 77 1.9 S 11 15 6 8 1018.4 1017.1 0.0
05/05:30am 11.8 9.5 7.3 74 2.2 S 9 13 5 7 1018.2 1016.9 0.0
05/05:00am 12.3 8.9 7.6 73 2.3 S 15 19 8 10 1018.1 1016.8 0.0
05/04:30am 12.5 10.2 7.4 71 2.5 SSE 9 15 5 8 1018.0 1016.7 0.0
05/04:00am 12.9 10.5 7.1 68 2.9 SSE 9 19 5 10 1017.5 1016.2 0.0
05/03:30am 13.3 11.4 6.9 65 3.1 SSE 6 9 3 5 1017.6 1016.3 0.0
05/03:00am 13.7 11.3 6.8 63 3.4 SSE 9 13 5 7 1017.9 1016.6 0.0
05/02:30am 14.4 10.8 6.7 60 3.8 SSE 15 20 8 11 1018.1 1016.8 0.0
05/02:00am 14.8 12.3 6.6 58 4.0 SSE 9 17 5 9 1018.4 1017.1 0.0
05/01:30am 15.5 13.0 6.5 55 4.4 SSE 9 13 5 7 1018.7 1017.4 0.0
05/01:00am 16.4 13.0 6.0 50 5.1 SSE 13 20 7 11 1018.8 1017.5 0.0
05/12:30am 17.2 13.6 5.2 45 5.8 SSE 13 20 7 11 1018.8 1017.5 0.0
05/12:00am 18.1 13.6 4.3 40 6.6 SSE 17 20 9 11 1019.0 1017.6 0.0
 
Date/Time
CDT
Temp
°C
App
Temp
°C
Dew
Point
°C
Rel
Hum
%
Delta-T
°C
Wind Press
QNH
hPa
Press
MSL
hPa
Rain since
9am
mm
Dir  Spd
km/h
Gust
km/h
Spd
kts
Gust
kts
04/11:30pm 18.9 14.3 3.5 36 7.3 SSE 17 22 9 12 1019.1 1017.7 0.0
04/11:00pm 19.2 15.7 3.4 35 7.5 SSE 11 17 6 9 1019.2 1017.8 0.0
04/10:30pm 20.0 15.7 3.3 33 8.0 SSE 15 20 8 11 1019.1 1017.7 0.0
04/10:00pm 20.1 16.1 2.9 32 8.2 S 13 19 7 10 1018.8 1017.5 0.0
04/09:30pm 20.6 16.6 2.9 31 8.4 S 13 19 7 10 1018.7 1017.4 0.0
04/09:00pm 21.0 17.4 2.8 30 8.7 S 11 15 6 8 1018.4 1017.1 0.0
04/08:30pm 21.4 17.7 2.6 29 9.0 S 11 15 6 8 1018.3 1017.0 0.0
04/08:00pm 22.4 18.3 2.5 27 9.6 S 13 19 7 10 1018.3 1017.0 0.0
04/07:30pm 22.9 18.7 1.9 25 10.0 S 13 19 7 10 1018.2 1016.9 0.0
04/07:00pm 23.5 18.6 1.8 24 10.4 S 17 30 9 16 1018.1 1016.8 0.0
04/06:30pm 24.0 19.5 2.2 24 10.5 S 15 24 8 13 1017.8 1016.5 0.0
04/06:00pm 24.0 18.1 1.6 23 10.7 SSW 22 30 12 16 1017.8 1016.5 0.0
04/05:30pm 24.6 19.3 2.1 23 10.9 S 19 24 10 13 1017.9 1016.6 0.0
04/05:00pm 24.5 19.0 2.0 23 10.9 SSE 20 30 11 16 1017.7 1016.4 0.0
04/04:30pm 24.8 19.9 2.3 23 10.9 SSE 17 26 9 14 1017.9 1016.6 0.0
04/04:00pm 24.6 19.7 2.1 23 10.9 S 17 28 9 15 1018.4 1017.1 0.0
04/03:30pm 24.0 18.0 1.0 22 10.8 S 22 32 12 17 1018.8 1017.5 0.0
04/03:00pm 23.6 18.3 1.9 24 10.4 S 19 32 10 17 1019.2 1017.8 0.0
04/02:30pm 23.0 17.6 1.4 24 10.2 S 19 32 10 17 1019.4 1018.0 0.0
04/02:00pm 22.3 16.8 1.9 26 9.7 S 20 32 11 17 1019.5 1018.1 0.0
04/01:30pm 22.2 17.4 2.8 28 9.3 S 17 26 9 14 1019.9 1018.5 0.0
04/01:00pm 21.1 15.9 2.4 29 8.9 S 19 28 10 15 1020.1 1018.8 0.0
04/12:30pm 20.4 15.7 3.2 32 8.2 SSE 17 26 9 14 1020.4 1019.1 0.0
04/12:00pm 18.6 13.4 3.6 37 7.1 S 20 32 11 17 1020.6 1019.3 0.0
04/11:30am 17.9 12.8 4.1 40 6.6 SSE 20 30 11 16 1020.8 1019.5 0.0
04/11:00am 17.1 11.8 4.8 44 5.9 SSE 22 32 12 17 1021.3 1020.0 0.0
04/10:30am 16.9 11.3 5.2 46 5.7 S 24 33 13 18 1021.3 1020.0 0.0
04/10:00am 15.7 11.0 5.9 52 4.8 S 20 35 11 19 1021.5 1020.2 0.0
04/09:30am 14.7 9.1 5.2 53 4.5 SSE 24 37 13 20 1021.5 1020.2 0.0
04/09:00am 14.2 8.7 5.8 57 4.0 SSE 24 32 13 17 1021.4 1020.1 0.0
04/08:30am 13.8 7.9 5.9 59 3.8 S 26 33 14 18 1021.3 1020.0 0.0
04/08:00am 13.5 8.1 6.4 62 3.5 S 24 32 13 17 1021.3 1020.0 0.0

Other formats

Comma delimited format used in spreadsheet applications
http://www.bom.gov.au/fwo/IDS60801/IDS60801.94684.axf

JavaScript Object Notation format (JSON) in row-major order
http://www.bom.gov.au/fwo/IDS60801/IDS60801.94684.json

Data quality

Most of these data are generated automatically and are frequently updated. Quality checks on data are not normally performed. It is possible for incorrect values to appear. Refer to information at About Latest Weather Observations and please check the disclaimer before using these data.